createdAt,value
2017-09-18T00:01:24.007Z,75.80
2017-09-18T00:03:51.518Z,75.10
2017-09-18T00:06:19.011Z,75.30
2017-09-18T00:08:47.294Z,75.00
2017-09-18T00:11:15.547Z,75.30
2017-09-18T00:13:43.038Z,75.30
2017-09-18T00:16:10.571Z,75.00
2017-09-18T00:18:38.825Z,74.80
2017-09-18T00:21:06.315Z,74.80
2017-09-18T00:23:34.598Z,74.60
2017-09-18T00:26:02.854Z,74.20
2017-09-18T00:28:31.114Z,74.00
2017-09-18T00:30:58.622Z,74.00
2017-09-18T00:33:26.110Z,73.60
2017-09-18T00:35:53.597Z,73.90
2017-09-18T00:38:21.105Z,73.80
2017-09-18T00:40:48.595Z,73.60
2017-09-18T00:43:16.081Z,73.80
2017-09-18T00:45:44.359Z,74.00
2017-09-18T00:48:12.614Z,74.20
2017-09-18T00:50:40.101Z,74.10
2017-09-18T00:53:08.374Z,74.40
2017-09-18T00:55:36.630Z,74.40
2017-09-18T00:58:04.113Z,74.30
2017-09-18T01:00:32.394Z,74.30
2017-09-18T01:03:00.646Z,74.60
2017-09-18T01:05:28.134Z,74.50
2017-09-18T01:07:55.646Z,74.50
2017-09-18T01:10:23.130Z,74.60
2017-09-18T01:12:51.387Z,75.10
2017-09-18T01:15:18.900Z,75.00
2017-09-18T01:17:46.390Z,75.20
2017-09-18T01:20:14.646Z,75.20
2017-09-18T01:22:42.154Z,75.60
2017-09-18T01:25:09.644Z,75.20
2017-09-18T01:27:37.154Z,75.00
2017-09-18T01:30:04.639Z,75.10
2017-09-18T01:32:32.913Z,75.20
2017-09-18T01:35:01.171Z,75.40
2017-09-18T01:37:28.658Z,75.40
2017-09-18T01:39:56.171Z,75.80
2017-09-18T01:42:23.658Z,76.10
2017-09-18T01:44:51.937Z,76.20
2017-09-18T01:47:20.190Z,76.20
2017-09-18T01:49:47.684Z,76.20
2017-09-18T01:52:15.193Z,76.10
2017-09-18T01:54:42.682Z,76.20
2017-09-18T01:57:10.170Z,76.50
2017-09-18T01:59:37.682Z,76.40
2017-09-18T02:02:05.171Z,76.20
2017-09-18T02:04:32.657Z,77.70
2017-09-18T02:07:00.158Z,77.80
2017-09-18T02:09:27.642Z,77.60
2017-09-18T02:11:55.918Z,78.50
2017-09-18T02:14:24.166Z,78.70
2017-09-18T02:16:51.651Z,78.60
2017-09-18T02:19:19.918Z,79.40
2017-09-18T02:21:48.166Z,79.70
2017-09-18T02:24:15.651Z,79.70
2017-09-18T02:26:43.926Z,79.80
2017-09-18T02:29:12.179Z,79.50
2017-09-18T02:31:39.695Z,79.40
2017-09-18T02:34:07.176Z,79.30
2017-09-18T02:36:34.665Z,79.30
2017-09-18T02:39:02.173Z,79.70
2017-09-18T02:41:29.658Z,80.10
2017-09-18T02:43:57.142Z,80.20
2017-09-18T02:46:25.226Z,80.30
2017-09-18T02:48:53.470Z,80.90
2017-09-18T02:51:20.974Z,80.90
2017-09-18T02:53:48.454Z,81.00
2017-09-18T02:56:15.938Z,81.30
2017-09-18T02:58:43.442Z,81.50
2017-09-18T03:01:10.938Z,81.80
2017-09-18T03:03:38.430Z,83.10
2017-09-18T03:06:05.934Z,82.60
2017-09-18T03:08:33.418Z,82.70
2017-09-18T03:11:00.926Z,82.70
2017-09-18T03:13:29.179Z,83.20
2017-09-18T03:15:56.662Z,83.10
2017-09-18T03:18:24.944Z,82.80
2017-09-18T03:20:53.189Z,82.90
2017-09-18T03:23:20.675Z,82.90
2017-09-18T03:25:48.945Z,83.00
2017-09-18T03:28:17.190Z,82.70
2017-09-18T03:30:44.698Z,82.70
2017-09-18T03:33:12.234Z,82.60
2017-09-18T03:35:40.486Z,82.70
2017-09-18T03:38:07.995Z,82.70
2017-09-18T03:40:35.479Z,82.70
2017-09-18T03:43:03.742Z,82.90
2017-09-18T03:45:31.250Z,82.90
2017-09-18T03:47:58.738Z,83.00
2017-09-18T03:50:26.246Z,83.10
2017-09-18T03:52:53.729Z,83.10
2017-09-18T03:55:21.982Z,83.40
2017-09-18T03:57:49.491Z,83.40
2017-09-18T04:00:16.980Z,84.00
2017-09-18T04:02:44.470Z,84.10
2017-09-18T04:05:11.974Z,83.90
2017-09-18T04:07:39.461Z,83.60
2017-09-18T04:10:08.329Z,83.90
2017-09-18T04:12:35.827Z,84.00
2017-09-18T04:15:03.324Z,83.70
2017-09-18T04:17:30.851Z,83.70
2017-09-18T04:19:58.352Z,83.80
2017-09-18T04:22:25.856Z,84.00
2017-09-18T04:24:53.408Z,84.10
2017-09-18T04:27:20.916Z,84.40
2017-09-18T04:29:48.435Z,84.40
2017-09-18T04:32:16.055Z,84.30
2017-09-18T04:34:43.547Z,84.50
2017-09-18T04:37:11.060Z,84.60
2017-09-18T04:39:38.568Z,84.50
2017-09-18T04:42:06.066Z,84.60
2017-09-18T04:44:33.565Z,84.50
2017-09-18T04:47:01.049Z,84.50
2017-09-18T04:49:28.625Z,84.60
2017-09-18T04:51:56.947Z,85.80
2017-09-18T04:54:24.443Z,86.40
2017-09-18T04:56:51.950Z,84.70
2017-09-18T04:59:19.433Z,84.70
2017-09-18T05:01:46.918Z,84.70
2017-09-18T05:04:14.425Z,84.80
2017-09-18T05:06:41.998Z,84.80
2017-09-18T05:09:09.514Z,84.80
2017-09-18T05:11:37.765Z,84.80
2017-09-18T05:14:05.266Z,84.80
2017-09-18T05:16:32.750Z,84.90
2017-09-18T05:19:00.259Z,84.70
2017-09-18T05:21:27.746Z,84.70
2017-09-18T05:23:55.254Z,84.70
2017-09-18T05:26:22.739Z,84.70
2017-09-18T05:28:51.017Z,84.60
2017-09-18T05:31:18.507Z,84.60
2017-09-18T05:33:46.014Z,84.60
2017-09-18T05:36:13.512Z,84.30
2017-09-18T05:38:41.017Z,84.30
2017-09-18T05:41:08.535Z,84.50
2017-09-18T05:43:36.031Z,84.30
2017-09-18T05:46:03.562Z,84.00
2017-09-18T05:48:31.050Z,84.20
2017-09-18T05:50:58.571Z,83.80
2017-09-18T05:53:26.062Z,83.70
2017-09-18T05:55:53.583Z,82.40
2017-09-18T05:58:21.100Z,82.30
2017-09-18T06:00:48.612Z,82.10
2017-09-18T06:03:16.111Z,82.00
2017-09-18T06:05:43.640Z,81.70
2017-09-18T06:08:11.138Z,81.60
2017-09-18T06:10:38.664Z,81.70
2017-09-18T06:13:06.158Z,82.00
2017-09-18T06:15:33.690Z,81.70
2017-09-18T06:18:01.195Z,81.20
2017-09-18T06:20:28.718Z,81.10
2017-09-18T06:22:56.290Z,80.90
2017-09-18T06:25:24.570Z,80.90
2017-09-18T06:27:52.830Z,80.30
2017-09-18T06:30:20.346Z,80.30
2017-09-18T06:32:47.841Z,80.40
2017-09-18T06:35:15.334Z,80.50
2017-09-18T06:37:43.618Z,80.70
2017-09-18T06:40:11.120Z,80.70
2017-09-18T06:42:38.638Z,80.40
2017-09-18T06:45:06.139Z,80.40
2017-09-18T06:47:33.654Z,80.30
2017-09-18T06:50:01.155Z,80.40
2017-09-18T06:52:28.671Z,80.10
2017-09-18T06:54:56.174Z,79.40
2017-09-18T06:57:23.791Z,79.50
2017-09-18T06:59:51.280Z,79.20
2017-09-18T07:02:18.798Z,79.60
2017-09-18T07:04:46.308Z,79.80
2017-09-18T07:07:13.817Z,79.40
2017-09-18T07:09:41.310Z,79.80
2017-09-18T07:12:08.822Z,80.10
2017-09-18T07:14:37.090Z,79.70
2017-09-18T07:17:05.383Z,79.80
2017-09-18T07:19:32.874Z,79.70
2017-09-18T07:22:00.381Z,79.70
2017-09-18T07:24:28.639Z,80.30
2017-09-18T07:26:56.159Z,79.60
2017-09-18T07:29:23.654Z,79.60
2017-09-18T07:31:51.143Z,79.60
2017-09-18T07:34:18.663Z,79.30
2017-09-18T07:36:46.158Z,79.10
2017-09-18T07:39:14.438Z,78.70
2017-09-18T07:41:42.698Z,78.40
2017-09-18T07:44:10.982Z,77.90
2017-09-18T07:46:39.262Z,76.40
2017-09-18T07:49:06.770Z,76.40
2017-09-18T07:51:34.271Z,76.60
2017-09-18T07:54:01.781Z,75.80
2017-09-18T07:56:29.275Z,75.30
2017-09-18T07:58:56.786Z,74.40
2017-09-18T08:01:24.274Z,74.70
2017-09-18T08:03:51.798Z,73.90
2017-09-18T08:06:19.290Z,74.20
2017-09-18T08:08:46.808Z,74.60
2017-09-18T08:11:14.302Z,74.30
2017-09-18T08:13:41.817Z,74.10
2017-09-18T08:16:09.305Z,73.60
2017-09-18T08:18:36.818Z,73.50
2017-09-18T08:21:05.073Z,73.50
2017-09-18T08:23:32.563Z,73.40
2017-09-18T08:26:00.078Z,72.40
2017-09-18T08:28:27.572Z,72.40
2017-09-18T08:30:55.850Z,71.20
2017-09-18T08:33:23.342Z,71.10
2017-09-18T08:35:50.853Z,70.40
2017-09-18T08:38:18.347Z,71.00
2017-09-18T08:40:45.858Z,72.10
2017-09-18T08:43:13.347Z,70.30
2017-09-18T08:45:40.866Z,69.70
2017-09-18T08:48:08.359Z,70.10
2017-09-18T08:50:36.651Z,69.70
2017-09-18T08:53:04.142Z,69.60
2017-09-18T08:55:31.663Z,69.60
2017-09-18T08:57:59.159Z,68.70
2017-09-18T09:00:26.666Z,68.20
2017-09-18T09:02:54.931Z,64.90
2017-09-18T09:05:22.450Z,64.70
2017-09-18T09:07:49.952Z,64.70
2017-09-18T09:10:17.466Z,65.20
2017-09-18T09:12:45.723Z,64.80
2017-09-18T09:15:13.216Z,64.80
2017-09-18T09:17:40.730Z,64.70
2017-09-18T09:20:08.221Z,62.70
2017-09-18T09:22:35.737Z,63.40
2017-09-18T09:25:03.227Z,64.30
2017-09-18T09:27:30.743Z,65.20
2017-09-18T09:29:59.007Z,63.60
2017-09-18T09:32:27.282Z,61.90
2017-09-18T09:34:54.776Z,61.70
2017-09-18T09:37:22.295Z,60.00
2017-09-18T09:39:49.793Z,59.40
2017-09-18T09:42:17.315Z,58.80
2017-09-18T09:44:45.584Z,61.10
2017-09-18T09:47:13.098Z,60.20
2017-09-18T09:49:40.591Z,59.90
2017-09-18T09:52:08.114Z,60.50
2017-09-18T09:54:35.603Z,60.50
2017-09-18T09:57:03.116Z,61.00
2017-09-18T09:59:30.606Z,60.00
2017-09-18T10:01:58.118Z,59.70
2017-09-18T10:04:25.615Z,60.60
2017-09-18T10:06:53.116Z,59.50
2017-09-18T10:09:21.402Z,56.30
2017-09-18T10:11:49.663Z,55.20
2017-09-18T10:14:17.180Z,55.20
2017-09-18T10:16:45.443Z,56.50
2017-09-18T10:19:12.955Z,55.80
2017-09-18T10:21:40.462Z,56.70
2017-09-18T10:24:07.975Z,57.00
2017-09-18T10:26:35.471Z,56.90
2017-09-18T10:29:02.991Z,56.40
2017-09-18T10:31:31.246Z,55.50
2017-09-18T10:33:58.759Z,55.40
2017-09-18T10:36:26.258Z,56.20
2017-09-18T10:38:53.771Z,55.90
2017-09-18T10:41:21.258Z,55.70
2017-09-18T10:43:48.765Z,55.30
2017-09-18T10:46:17.023Z,54.10
2017-09-18T10:48:44.544Z,54.00
2017-09-18T10:51:12.047Z,53.50
2017-09-18T10:53:39.567Z,53.40
2017-09-18T10:56:07.059Z,53.70
2017-09-18T10:58:34.551Z,53.30
2017-09-18T11:01:02.067Z,51.60
2017-09-18T11:03:29.559Z,48.00
2017-09-18T11:05:57.847Z,44.00
2017-09-18T11:08:25.343Z,43.80
2017-09-18T11:10:52.855Z,43.70
2017-09-18T11:13:20.352Z,45.30
2017-09-18T11:15:48.631Z,48.60
2017-09-18T11:18:16.892Z,48.00
2017-09-18T11:20:44.410Z,48.00
2017-09-18T11:23:12.667Z,45.80
2017-09-18T11:25:40.183Z,45.80
2017-09-18T11:28:07.683Z,47.20
2017-09-18T11:30:35.207Z,46.00
2017-09-18T11:33:02.699Z,45.70
2017-09-18T11:35:30.210Z,45.60
2017-09-18T11:37:57.702Z,45.80
2017-09-18T11:40:25.218Z,46.50
2017-09-18T11:42:52.712Z,48.30
2017-09-18T11:45:20.227Z,47.40
2017-09-18T11:47:47.718Z,46.40
2017-09-18T11:50:15.234Z,46.40
2017-09-18T11:52:43.522Z,45.30
2017-09-18T11:55:11.010Z,45.30
2017-09-18T11:57:38.526Z,43.60
2017-09-18T12:00:06.788Z,41.80
2017-09-18T12:02:35.072Z,40.40
2017-09-18T12:05:02.558Z,40.30
2017-09-18T12:07:30.074Z,40.60
2017-09-18T12:09:57.566Z,40.80
2017-09-18T12:12:25.078Z,41.60
2017-09-18T12:14:52.566Z,38.70
2017-09-18T12:17:20.846Z,39.10
2017-09-18T12:19:48.359Z,39.10
2017-09-18T12:22:15.868Z,37.50
2017-09-18T12:24:44.122Z,34.40
2017-09-18T12:27:11.634Z,34.30
2017-09-18T12:29:39.126Z,32.90
2017-09-18T12:32:06.647Z,32.60
2017-09-18T12:34:34.138Z,33.60
2017-09-18T12:37:01.649Z,36.40
2017-09-18T12:39:29.142Z,38.80
2017-09-18T12:41:56.655Z,41.10
2017-09-18T12:44:24.146Z,42.20
2017-09-18T12:46:51.635Z,43.80
2017-09-18T12:49:19.146Z,44.90
2017-09-18T12:51:46.653Z,45.70
2017-09-18T12:54:14.170Z,46.80
2017-09-18T12:56:41.662Z,45.70
2017-09-18T12:59:09.182Z,44.60
2017-09-18T13:01:36.675Z,46.40
2017-09-18T13:04:04.186Z,47.70
2017-09-18T13:06:31.681Z,48.50
2017-09-18T13:08:59.227Z,48.90
2017-09-18T13:11:26.739Z,49.50
2017-09-18T13:13:54.256Z,50.40
2017-09-18T13:16:21.751Z,50.50
2017-09-18T13:18:49.263Z,51.00
2017-09-18T13:21:16.758Z,51.70
2017-09-18T13:23:44.271Z,53.20
2017-09-18T13:26:11.771Z,53.60
2017-09-18T13:28:39.290Z,54.40
2017-09-18T13:31:06.783Z,53.90
2017-09-18T13:33:34.304Z,53.80
2017-09-18T13:36:01.796Z,53.70
2017-09-18T13:38:29.294Z,49.00
2017-09-18T13:40:56.807Z,43.80
2017-09-18T13:43:24.307Z,41.20
2017-09-18T13:45:52.587Z,39.60
2017-09-18T13:48:20.854Z,40.20
2017-09-18T13:50:49.130Z,40.30
2017-09-18T13:53:17.387Z,41.30
2017-09-18T13:55:44.916Z,41.20
2017-09-18T13:58:12.415Z,43.10
2017-09-18T14:00:39.954Z,43.90
2017-09-18T14:03:07.454Z,45.00
2017-09-18T14:05:34.970Z,46.80
2017-09-18T14:08:02.458Z,48.30
2017-09-18T14:10:30.734Z,50.50
2017-09-18T14:12:59.076Z,50.50
2017-09-18T14:15:26.592Z,50.40
2017-09-18T14:17:54.081Z,52.20
2017-09-18T14:20:21.606Z,55.10
2017-09-18T14:22:49.101Z,57.50
2017-09-18T14:25:16.619Z,58.70
2017-09-18T14:27:44.115Z,62.70
2017-09-18T14:30:11.632Z,64.20
2017-09-18T14:32:39.143Z,65.70
2017-09-18T14:35:06.667Z,64.40
2017-09-18T14:37:34.174Z,65.60
2017-09-18T14:40:01.676Z,59.90
2017-09-18T14:42:29.201Z,60.90
2017-09-18T14:44:56.702Z,61.60
2017-09-18T14:47:24.227Z,58.80
2017-09-18T14:49:51.718Z,57.40
2017-09-18T14:52:19.230Z,57.40
2017-09-18T14:54:46.723Z,58.90
2017-09-18T14:57:14.231Z,58.00
2017-09-18T14:59:41.721Z,59.00
2017-09-18T15:02:09.239Z,63.60
2017-09-18T15:04:36.759Z,60.70
2017-09-18T15:07:04.270Z,57.20
2017-09-18T15:09:31.758Z,55.20
2017-09-18T15:11:59.266Z,55.50
2017-09-18T15:14:26.768Z,56.70
2017-09-18T15:16:55.048Z,56.90
2017-09-18T15:19:23.308Z,54.10
2017-09-18T15:21:51.575Z,53.90
2017-09-18T15:24:19.086Z,53.80
2017-09-18T15:26:46.578Z,52.70
2017-09-18T15:29:14.090Z,53.60
2017-09-18T15:31:41.582Z,56.20
2017-09-18T15:34:09.099Z,54.20
2017-09-18T15:36:36.582Z,54.70
2017-09-18T15:39:04.107Z,54.40
2017-09-18T15:41:31.603Z,56.70
2017-09-18T15:43:59.115Z,57.40
2017-09-18T15:46:26.604Z,56.90
2017-09-18T15:48:54.135Z,57.40
2017-09-18T15:51:22.390Z,58.20
2017-09-18T15:53:49.902Z,58.20
2017-09-18T15:56:17.402Z,59.40
2017-09-18T15:58:44.926Z,59.40
2017-09-18T16:01:12.418Z,58.90
2017-09-18T16:03:39.930Z,58.90
2017-09-18T16:06:07.427Z,58.80
2017-09-18T16:08:34.941Z,59.10
2017-09-18T16:11:02.431Z,59.60
2017-09-18T16:13:29.918Z,60.90
2017-09-18T16:15:57.434Z,62.30
2017-09-18T16:18:24.923Z,64.20
2017-09-18T16:20:52.437Z,62.80
2017-09-18T16:23:19.934Z,61.80
2017-09-18T16:25:47.446Z,71.80
2017-09-18T16:28:14.958Z,77.30
2017-09-18T16:30:42.470Z,76.60
2017-09-18T16:33:09.957Z,79.10
2017-09-18T16:35:37.480Z,76.90
2017-09-18T16:38:04.972Z,81.70
2017-09-18T16:40:32.490Z,80.50
2017-09-18T16:42:59.997Z,81.70
2017-09-18T16:45:27.510Z,81.00
2017-09-18T16:47:55.012Z,82.00
2017-09-18T16:50:22.522Z,81.80
2017-09-18T16:52:50.778Z,81.00
2017-09-18T16:55:18.291Z,81.00
2017-09-18T16:57:45.790Z,82.20
2017-09-18T17:00:13.313Z,78.70
2017-09-18T17:02:40.846Z,77.60
2017-09-18T17:05:08.361Z,79.90
2017-09-18T17:07:35.866Z,78.60
2017-09-18T17:10:03.357Z,80.50
2017-09-18T17:12:30.871Z,79.60
2017-09-18T17:14:58.370Z,76.60
2017-09-18T17:17:25.883Z,76.50
2017-09-18T17:19:53.377Z,79.20
2017-09-18T17:22:20.894Z,80.10
2017-09-18T17:24:49.151Z,76.70
2017-09-18T17:27:17.434Z,76.70
2017-09-18T17:29:45.695Z,77.20
2017-09-18T17:32:13.211Z,77.10
2017-09-18T17:34:40.702Z,77.10
2017-09-18T17:37:08.216Z,79.40
2017-09-18T17:39:35.706Z,75.70
2017-09-18T17:42:03.220Z,75.90
2017-09-18T17:44:30.711Z,74.40
2017-09-18T17:46:58.226Z,76.40
2017-09-18T17:49:25.722Z,78.90
2017-09-18T17:51:53.234Z,80.00
2017-09-18T17:54:21.495Z,80.60
2017-09-18T17:56:48.991Z,80.70
2017-09-18T17:59:16.514Z,80.10
2017-09-18T18:01:44.007Z,80.90
2017-09-18T18:04:11.522Z,80.90
2017-09-18T18:06:39.014Z,81.10
2017-09-18T18:09:06.536Z,80.10
2017-09-18T18:11:34.027Z,80.60
2017-09-18T18:14:01.554Z,80.40
2017-09-18T18:16:29.050Z,81.90
2017-09-18T18:18:56.563Z,81.60
2017-09-18T18:21:24.049Z,80.70
2017-09-18T18:23:52.360Z,81.80
2017-09-18T18:26:19.873Z,81.70
2017-09-18T18:28:47.394Z,80.60
2017-09-18T18:31:14.896Z,79.80
2017-09-18T18:33:42.411Z,79.80
2017-09-18T18:36:09.910Z,80.10
2017-09-18T18:38:37.431Z,81.70
2017-09-18T18:41:04.935Z,82.30
2017-09-18T18:43:33.223Z,81.60
2017-09-18T18:46:01.486Z,81.60
2017-09-18T18:48:29.734Z,81.60
2017-09-18T18:50:57.283Z,81.00
2017-09-18T18:53:24.786Z,81.30
2017-09-18T18:55:53.071Z,80.90
2017-09-18T18:58:21.316Z,80.90
2017-09-18T19:00:49.635Z,81.30
2017-09-18T19:03:17.134Z,81.30
2017-09-18T19:05:46.795Z,81.60
2017-09-18T19:08:14.623Z,81.70
2017-09-18T19:10:42.421Z,82.70
2017-09-18T19:13:11.039Z,83.70
2017-09-18T19:15:41.879Z,83.40
2017-09-18T19:18:09.398Z,83.10
2017-09-18T19:20:42.930Z,83.00
2017-09-18T19:23:10.502Z,82.60
2017-09-18T19:25:38.183Z,83.90
2017-09-18T19:28:05.703Z,83.80
2017-09-18T19:30:33.230Z,83.20
2017-09-18T19:33:01.502Z,82.60
2017-09-18T19:35:29.018Z,82.60
2017-09-18T19:37:56.509Z,83.10
2017-09-18T19:40:24.035Z,83.20
2017-09-18T19:42:51.538Z,83.10
2017-09-18T19:45:19.803Z,83.30
2017-09-18T19:47:47.318Z,83.10
2017-09-18T19:50:14.822Z,82.70
2017-09-18T19:52:42.347Z,83.30
2017-09-18T19:55:09.846Z,85.10
2017-09-18T19:57:38.126Z,84.30
2017-09-18T20:00:06.390Z,84.50
2017-09-18T20:02:33.915Z,84.50
2017-09-18T20:05:01.419Z,84.70
2017-09-18T20:07:28.938Z,83.90
2017-09-18T20:09:56.443Z,83.90
2017-09-18T20:12:24.730Z,84.10
2017-09-18T20:14:52.235Z,84.10
2017-09-18T20:17:19.755Z,84.30
2017-09-18T20:19:47.250Z,84.00
2017-09-18T20:22:14.770Z,84.30
2017-09-18T20:24:42.272Z,84.10
2017-09-18T20:27:09.790Z,83.50
2017-09-18T20:29:37.286Z,83.00
2017-09-18T20:32:04.809Z,83.90
2017-09-18T20:34:32.302Z,83.80
2017-09-18T20:36:59.802Z,84.90
2017-09-18T20:39:28.090Z,84.60
2017-09-18T20:41:55.581Z,84.60
2017-09-18T20:44:23.112Z,84.10
2017-09-18T20:46:50.607Z,84.20
2017-09-18T20:49:18.122Z,83.20
2017-09-18T20:51:45.626Z,83.40
2017-09-18T20:54:13.139Z,83.30
2017-09-18T20:56:40.630Z,84.00
2017-09-18T20:59:08.142Z,84.60
2017-09-18T21:01:35.668Z,83.80
2017-09-18T21:04:03.186Z,83.60
2017-09-18T21:06:30.678Z,83.80
2017-09-18T21:08:58.198Z,84.10
2017-09-18T21:11:25.687Z,84.40
2017-09-18T21:13:53.200Z,83.60
2017-09-18T21:16:20.694Z,84.10
2017-09-18T21:18:48.206Z,83.30
2017-09-18T21:21:16.466Z,83.70
2017-09-18T21:23:43.998Z,83.60
2017-09-18T21:26:11.533Z,83.90
2017-09-18T21:28:39.050Z,83.80
2017-09-18T21:31:06.542Z,83.70
2017-09-18T21:33:34.058Z,83.50
2017-09-18T21:36:02.322Z,85.00
2017-09-18T21:38:29.846Z,84.00
2017-09-18T21:40:57.338Z,84.80
2017-09-18T21:43:24.849Z,85.20
2017-09-18T21:45:52.341Z,85.00
2017-09-18T21:48:19.866Z,84.80
2017-09-18T21:50:47.358Z,84.10
2017-09-18T21:53:14.873Z,83.60
2017-09-18T21:55:42.371Z,83.20
2017-09-18T21:58:09.892Z,83.90
2017-09-18T22:00:37.398Z,84.60
2017-09-18T22:03:04.891Z,84.30
2017-09-18T22:05:33.179Z,83.80
2017-09-18T22:08:00.674Z,83.60
2017-09-18T22:10:28.975Z,84.50
2017-09-18T22:12:56.469Z,84.50
2017-09-18T22:15:24.751Z,84.20
2017-09-18T22:17:52.254Z,84.20
2017-09-18T22:20:19.775Z,84.30
2017-09-18T22:22:47.269Z,83.40
2017-09-18T22:25:14.791Z,83.90
2017-09-18T22:27:42.285Z,84.80
2017-09-18T22:30:09.805Z,84.50
2017-09-18T22:32:37.301Z,84.20
2017-09-18T22:35:04.822Z,84.10
2017-09-18T22:37:32.347Z,84.10
2017-09-18T22:39:59.871Z,84.30
2017-09-18T22:42:27.378Z,84.50
2017-09-18T22:44:54.893Z,84.30
2017-09-18T22:47:22.389Z,84.20
2017-09-18T22:49:50.683Z,83.20
2017-09-18T22:52:18.174Z,83.10
2017-09-18T22:54:45.690Z,82.90
2017-09-18T22:57:13.186Z,83.90
2017-09-18T22:59:40.698Z,84.30
2017-09-18T23:02:08.959Z,84.70
2017-09-18T23:04:37.229Z,84.30
2017-09-18T23:07:04.718Z,84.50
2017-09-18T23:09:33.003Z,84.90
2017-09-18T23:12:00.502Z,84.70
2017-09-18T23:14:28.018Z,84.90
2017-09-18T23:16:55.510Z,84.60
2017-09-18T23:19:23.033Z,84.10
2017-09-18T23:21:50.530Z,83.20
2017-09-18T23:24:18.050Z,83.40
2017-09-18T23:26:45.542Z,83.90
2017-09-18T23:29:13.058Z,84.50
2017-09-18T23:31:40.557Z,84.90
2017-09-18T23:34:08.082Z,84.80
2017-09-18T23:36:35.578Z,84.90
2017-09-18T23:39:03.093Z,84.40
2017-09-18T23:41:31.354Z,84.10
2017-09-18T23:43:59.630Z,84.00
2017-09-18T23:46:27.122Z,83.90
2017-09-18T23:48:54.635Z,84.20
2017-09-18T23:51:22.123Z,83.60
2017-09-18T23:53:49.641Z,84.70
2017-09-18T23:56:17.135Z,85.30
2017-09-18T23:58:45.445Z,84.70
